• Join FlightAware (Why Join?)
  • Login
  • US Flag 
02:27PM EDT


 

Airport Tracker/Info


-or-


 

Live Flight TrackerFlight Track Log ✈ AWE1940 ✈ 18-May-2013 ✈ KCLT - KALB

Flight Track Log - Related Links

Times and Time Zones

All times are in EDT time to prevent confusion due to time zone crossing. See the AWE1940 flight status page for this flight to view local times or setup timezone preferences in your user account.

Time Position Orientation Groundspeed Altitude Reporting Facility
EDT Latitude Longitude Course Direction KTS MPH feet Rate Location/Type
10:21PM 35.1972 -80.9381 232° Southwest 147 169 1,700  Level Atlanta Center
10:23PM 35.1669 -80.9847 232° Southwest 249 287 4,600 2,340 Climbing Atlanta Center
10:23PM 35.2242 -81.0208 333° Northwest 291 335 7,000 3,300 Climbing Atlanta Center
10:24PM 35.2447 -81.0075 28° Northeast 300 345 8,300 3,060 Climbing Atlanta Center
10:24PM 35.3028 -80.9950 10° North 286 329 10,100 2,160 Climbing Atlanta Center
10:25PM 35.3878 -80.9717 13° North 335 386 12,000 2,700 Climbing Atlanta Center
10:26PM 35.4833 -80.9475 12° North 343 395 15,500 3,000 Climbing Atlanta Center
10:27PM 35.5783 -80.9108 17° North 348 400 18,000 2,460 Climbing Atlanta Center
10:28PM 35.6750 -80.8636 22° Northeast 366 421 20,500 2,460 Climbing Atlanta Center
10:29PM 35.7739 -80.8111 23° Northeast 373 429 23,000 2,160 Climbing Atlanta Center
10:30PM 35.8767 -80.7583 23° Northeast 386 444 24,900 1,800 Climbing Atlanta Center
10:31PM 35.9858 -80.7028 22° Northeast 399 459 26,600 1,800 Climbing Atlanta Center
10:32PM 36.0947 -80.6467 23° Northeast 417 480 28,500 1,440 Climbing Atlanta Center
10:33PM 36.2081 -80.5931 21° North 430 495 29,500 1,260 Climbing Atlanta Center
10:34PM 36.3211 -80.5317 24° Northeast 435 501 31,100 1,740 Climbing Atlanta Center
10:35PM 36.4361 -80.4725 22° Northeast 440 506 33,000 1,200 Climbing Atlanta Center
10:36PM 36.5492 -80.4158 22° Northeast 440 506 33,500 480 Climbing Atlanta Center
10:39PM 36.7833 -80.2964 22° Northeast 437 503 34,700 420 Climbing Washington Center
10:40PM 36.8922 -80.2381 23° Northeast 432 497 35,000 120 Climbing Washington Center
10:41PM 37.0050 -80.1772 23° Northeast 427 491 35,000  Level Washington Center
10:42PM 37.1156 -80.1214 22° Northeast 427 491 35,000  Level Washington Center
10:43PM 37.2392 -80.0581 22° Northeast 427 491 35,000  Level Washington Center
10:44PM 37.3497 -80.0019 22° Northeast 422 486 35,000  Level Washington Center
10:45PM 37.4603 -79.9403 24° Northeast 422 486 35,000  Level Washington Center
10:46PM 37.5731 -79.8839 22° Northeast 422 486 35,000  Level Washington Center
10:47PM 37.6689 -79.8264 25° Northeast 422 486 35,000  Level Washington Center
10:48PM 37.7919 -79.7650 22° Northeast 422 486 35,000  Level Washington Center
10:49PM 37.8897 -79.7125 23° Northeast 422 486 35,000  Level Washington Center
10:50PM 38.0003 -79.6525 23° Northeast 422 486 35,000  Level Washington Center
10:51PM 38.1108 -79.5925 23° Northeast 422 486 35,000  Level Washington Center
10:52PM 38.2192 -79.5325 24° Northeast 422 486 35,000  Level Washington Center
10:53PM 38.3422 -79.4647 23° Northeast 422 486 35,000  Level Washington Center
10:54PM 38.4506 -79.4067 23° Northeast 422 486 35,000  Level Washington Center
10:55PM 38.5586 -79.3486 23° Northeast 422 486 35,000  Level Washington Center
10:56PM 38.6669 -79.2903 23° Northeast 422 486 35,000  Level Washington Center
10:57PM 38.7664 -79.2339 24° Northeast 422 486 35,000  Level Washington Center
10:58PM 38.8706 -79.1725 25° Northeast 422 486 35,000  Level Washington Center
10:59PM 39.0647 -79.0647 23° Northeast 439 505 35,000  Level Cleveland Center
11:00PM 39.1764 -79.0008 24° Northeast 434 499 35,000  Level Cleveland Center
11:01PM 39.2881 -78.9392 23° Northeast 434 499 35,000  Level Cleveland Center
11:02PM 39.3853 -78.8831 24° Northeast 434 499 35,000  Level Cleveland Center
11:03PM 39.4950 -78.8211 24° Northeast 434 499 35,000  Level Cleveland Center
11:04PM 39.6003 -78.7592 24° Northeast 424 488 35,000  Level Cleveland Center
11:05PM 39.7033 -78.6997 24° Northeast 414 476 35,000  Level Cleveland Center
11:06PM 39.8150 -78.6344 24° Northeast 409 471 35,000  Level Cleveland Center
11:07PM 39.9161 -78.5747 24° Northeast 397 457 35,000  Level Cleveland Center
11:08PM 40.0192 -78.5172 23° Northeast 397 457 35,000  Level Cleveland Center
11:09PM 40.1244 -78.4569 24° Northeast 397 457 35,000  Level Cleveland Center
11:10PM 40.2275 -78.3967 24° Northeast 397 457 35,000  Level Cleveland Center
11:11PM 40.3328 -78.3361 24° Northeast 397 457 35,000  Level Cleveland Center
11:12PM 40.4358 -78.2753 24° Northeast 397 457 35,000  Level Cleveland Center
11:13PM 40.5308 -78.2208 24° Northeast 411 473 35,000  Level New York Center
11:14PM 40.6328 -78.1581 25° Northeast 411 473 35,000  Level New York Center
11:15PM 40.7389 -78.0981 23° Northeast 411 473 35,000  Level New York Center
11:16PM 40.8425 -78.0381 24° Northeast 411 473 35,000  Level New York Center
11:17PM 40.9389 -77.9603 31° Northeast 411 473 35,000  Level New York Center
11:18PM 41.0192 -77.8422 48° Northeast 404 465 35,000  Level New York Center
11:19PM 41.0964 -77.7317 47° Northeast 409 471 35,000 -360 Level New York Center
11:20PM 41.1764 -77.6131 48° Northeast 415 478 34,300 -900 Descending New York Center
11:21PM 41.2536 -77.4994 48° Northeast 420 483 33,300 -960 Descending New York Center
11:22PM 41.3331 -77.3831 48° Northeast 420 483 32,400 -1,020 Descending New York Center
11:23PM 41.4056 -77.2767 48° Northeast 420 483 31,300 -1,020 Descending New York Center
11:24PM 41.4917 -77.1492 48° Northeast 433 498 30,400 -960 Descending New York Center
11:25PM 41.5733 -77.0239 49° Northeast 445 512 29,400 -720 Descending New York Center
11:26PM 41.6475 -76.8781 56° Northeast 457 526 29,000 -780 Descending New York Center
11:27PM 41.7014 -76.7219 65° Northeast 457 526 27,900 -1,020 Descending New York Center
11:28PM 41.7536 -76.5903 62° Northeast 457 526 27,000 -960 Descending New York Center
11:29PM 41.8136 -76.4286 63° Northeast 452 520 26,000 -1,020 Descending New York Center
11:30PM 41.8733 -76.2639 64° Northeast 446 513 25,000 -540 Descending New York Center
11:33PM 42.0306 -75.8419 63° Northeast 456 525 24,000 -300 Descending Boston Center
11:34PM 42.0828 -75.6936 65° Northeast 451 519 24,000  Level Boston Center
11:35PM 42.1436 -75.5344 63° Northeast 445 512 24,000  Level Boston Center
11:36PM 42.1931 -75.3939 65° Northeast 439 505 24,000 -420 Level Boston Center
11:37PM 42.2469 -75.2419 64° Northeast 439 505 23,200 -960 Descending Boston Center
11:38PM 42.3050 -75.0819 64° Northeast 433 498 22,100 -1,860 Descending Boston Center
11:39PM 42.3542 -74.9406 65° Northeast 428 493 19,500 -2,640 Descending Boston Center
11:40PM 42.4031 -74.8019 64° Northeast 418 481 16,900 -2,640 Descending Boston Center
11:40PM 42.4142 -74.7658 67° East 399 459 16,200 -3,240 Descending Boston Center
11:41PM 42.4431 -74.6769 66° East 406 467 13,700 -3,420 Descending Boston Center
11:41PM 42.4650 -74.6214 62° Northeast 395 455 12,500 -2,640 Descending Boston Center
11:42PM 42.4958 -74.5322 65° Northeast 387 445 11,100 -2,220 Descending Boston Center
11:42PM 42.5156 -74.4794 63° Northeast 379 436 10,300 -1,200 Descending Boston Center
11:43PM 42.5331 -74.4208 68° East 364 419 9,900 -720 Descending Boston Center
11:43PM 42.5550 -74.3708 59° Northeast 317 365 9,600 -1,140 Descending Boston Center
11:44PM 42.5747 -74.3067 67° East 311 358 8,800 -1,320 Descending Boston Center
11:44PM 42.5878 -74.2703 64° Northeast 276 318 8,300 -1,440 Descending Boston Center
11:45PM 42.6031 -74.2228 66° East 286 329 7,400 -1,680 Descending Boston Center
11:45PM 42.6206 -74.1753 63° Northeast 271 312 6,600 -2,100 Descending Boston Center
11:46PM 42.6381 -74.1194 67° East 267 307 5,300 -2,100 Descending Boston Center
11:46PM 42.6531 -74.0858 59° Northeast 266 306 4,500 -1,320 Descending Boston Center
11:47PM 42.6706 -74.0439 60° Northeast 262 302 4,000 -1,140 Descending Boston Center
11:47PM 42.7042 -74.0194 28° Northeast 259 298 3,400 -1,020 Descending Boston Center
11:48PM 42.7336 -73.9975 29° Northeast 245 282 3,000 -420 Descending Boston Center
11:48PM 42.7631 -73.9758 28° Northeast 236 272 3,000  Level Boston Center
11:49PM 42.7906 -73.9536 31° Northeast 235 270 3,000  Level Boston Center
11:49PM 42.8219 -73.9347 24° Northeast 231 266 3,000 -240 Level Boston Center
11:50PM 42.8494 -73.8986 44° Northeast 235 270 2,800 -900 Descending Boston Center
11:50PM 42.8519 -73.8703 83° East 196 226 2,100 -1,500 Descending Boston Center